M I D A S
Marine Information and Data Acquisition System
Tripno 1112 of the Zeeleeuw from 2006-06-08 04:42:34 to 2006-06-08 16:08:28
Back to CruiseResearch ActivitiesStationsMapUnderway DataData graphs

EquipmentUnitsComments
TimeDGPSUTC
LatitudeDGPSDM.mWGS84
LongitudeDGPSDM.mWGS84
SpeedMeteo Stationm/sRelative wind speed
DirectionMeteo StationdegRelative wind direction
TemperatureMeteo Stationdeg CelciusAir temperature
PressureMeteo StationPaAtmospheric pressure
HumidityMeteo Station%Relative humidity
Missing or incorrect values are displayed as -999
Metereological data collected by the RV Zeeleeuw from 2006-06-08 04:41:17 to 2006-06-08 16:13:21
Time Latitude Longitude Speed Direction Temperature Pressure Humidity
2006-06-08 04:42 51°13.62 2°56.027 -999 199 11.9 102720 83
2006-06-08 04:43 51°13.646 2°55.924 -999 219 11.9 102720 83
2006-06-08 04:44 51°13.681 2°55.837 -999 216 11.9 102720 83
2006-06-08 04:45 51°13.713 2°55.765 -999 227 11.9 102720 83
2006-06-08 04:46 51°13.719 2°55.782 -999 11 11.9 102720 83
2006-06-08 04:47 51°13.707 2°55.749 -999 168 12 102720 84
2006-06-08 04:48 51°13.714 2°55.748 -999 48 12 102720 84
2006-06-08 04:49 51°13.752 2°55.724 -999 18 12.1 102720 84
2006-06-08 04:50 51°13.85 2°55.62 -999 12 12.2 102720 84
2006-06-08 04:51 51°13.997 2°55.516 -999 22 12.2 102720 84
2006-06-08 04:52 51°14.133 2°55.422 -999 27 12.2 102710 83
2006-06-08 04:53 51°14.263 2°55.273 -999 22 12.2 102710 83
2006-06-08 04:54 51°14.372 2°55.049 -999 16 12.1 102710 83
2006-06-08 04:55 51°14.526 2°54.841 -999 19 12.3 102720 84
2006-06-08 04:56 51°14.699 2°54.652 -999 18 12.3 102720 84
2006-06-08 04:57 51°14.859 2°54.432 -999 16 12.3 102720 84
2006-06-08 04:58 51°15.034 2°54.258 -999 14 12.4 102720 85
2006-06-08 04:59 51°15.207 2°54.08 -999 16 12.5 102720 86
2006-06-08 05:00 51°15.366 2°53.857 -999 14 12.5 102710 86
2006-06-08 05:01 51°15.541 2°53.667 -999 16 12.6 102710 87
2006-06-08 05:02 51°15.714 2°53.469 -999 14 12.7 102710 88
2006-06-08 05:03 51°15.895 2°53.294 -999 21 12.9 102710 89
2006-06-08 05:04 51°16.08 2°53.136 -999 24 13.1 102710 89
2006-06-08 05:05 51°16.266 2°52.984 -999 28 13.2 102710 89
2006-06-08 05:06 51°16.461 2°52.874 -999 31 13.2 102700 88
2006-06-08 05:07 51°16.65 2°52.748 -999 31 13.3 102710 87
2006-06-08 05:08 51°16.84 2°52.638 -999 31 13.4 102710 87
2006-06-08 05:09 51°17.028 2°52.531 -999 32 13.5 102710 86
2006-06-08 05:10 51°17.209 2°52.395 -999 31 13.5 102710 86
2006-06-08 05:11 51°17.396 2°52.281 -999 31 13.5 102700 86
2006-06-08 05:12 51°17.579 2°52.148 -999 29 13.5 102700 86
2006-06-08 05:13 51°17.766 2°52.029 -999 30 13.5 102700 86
2006-06-08 05:14 51°17.949 2°51.912 -999 32 13.5 102700 86
2006-06-08 05:15 51°18.138 2°51.781 -999 29 13.5 102700 86
2006-06-08 05:16 51°18.325 2°51.649 -999 28 13.5 102700 86
2006-06-08 05:17 51°18.509 2°51.511 -999 28 13.5 102700 86
2006-06-08 05:18 51°18.701 2°51.375 -999 23 13.5 102710 86
2006-06-08 05:19 51°18.889 2°51.247 -999 23 13.5 102710 86
2006-06-08 05:20 51°19.084 2°51.116 -999 23 13.6 102700 86
2006-06-08 05:21 51°19.273 2°50.973 -999 22 13.6 102720 86
2006-06-08 05:22 51°19.463 2°50.832 -999 23 13.6 102710 85
2006-06-08 05:23 51°19.652 2°50.692 -999 23 13.6 102720 86
2006-06-08 05:24 51°19.841 2°50.552 -999 23 13.7 102720 86
2006-06-08 05:25 51°20.032 2°50.414 -999 25 13.7 102720 86
2006-06-08 05:26 51°20.223 2°50.269 -999 25 13.7 102720 86
2006-06-08 05:27 51°20.414 2°50.13 -999 24 13.7 102720 86
2006-06-08 05:28 51°20.607 2°49.994 -999 25 13.7 102720 86
2006-06-08 05:29 51°20.8 2°49.85 -999 22 13.6 102720 87
2006-06-08 05:30 51°20.993 2°49.706 -999 24 13.7 102720 87
2006-06-08 05:31 51°21.189 2°49.577 -999 22 13.7 102720 87
2006-06-08 05:32 51°21.385 2°49.449 -999 22 13.6 102720 87
2006-06-08 05:33 51°21.581 2°49.319 -999 22 13.8 102720 88
2006-06-08 05:34 51°21.774 2°49.187 -999 20 13.6 102720 88
2006-06-08 05:35 51°21.97 2°49.068 -999 21 13.6 102720 88
2006-06-08 05:36 51°22.167 2°48.947 -999 20 13.6 102720 88
2006-06-08 05:37 51°22.363 2°48.834 -999 21 13.6 102720 89
2006-06-08 05:38 51°22.556 2°48.721 -999 21 13.6 102720 89
2006-06-08 05:39 51°22.748 2°48.609 -999 21 13.6 102720 89
2006-06-08 05:40 51°22.938 2°48.491 -999 18 13.6 102730 89
2006-06-08 05:41 51°23.129 2°48.368 -999 21 13.6 102720 89
2006-06-08 05:42 51°23.322 2°48.248 -999 18 13.6 102720 89
2006-06-08 05:43 51°23.516 2°48.128 -999 22 13.6 102720 89
2006-06-08 05:44 51°23.711 2°48.008 -999 21 13.6 102720 89
2006-06-08 05:45 51°23.906 2°47.887 -999 20 13.5 102720 89
2006-06-08 05:46 51°24.104 2°47.773 -999 19 13.5 102720 89
2006-06-08 05:47 51°24.303 2°47.663 -999 22 13.5 102720 89
2006-06-08 05:48 51°24.502 2°47.551 -999 21 13.5 102720 89
2006-06-08 05:49 51°24.699 2°47.435 -999 21 13.5 102720 89
2006-06-08 05:50 51°24.896 2°47.321 -999 19 13.5 102720 90
2006-06-08 05:51 51°25.091 2°47.216 -999 22 13.5 102720 90
2006-06-08 05:52 51°25.285 2°47.111 -999 20 13.6 102730 90
2006-06-08 05:53 51°25.481 2°47.006 -999 18 13.6 102730 90
2006-06-08 05:54 51°25.674 2°46.896 -999 20 13.6 102730 90
2006-06-08 05:55 51°25.865 2°46.786 -999 20 13.6 102730 90
2006-06-08 05:56 51°26.055 2°46.679 -999 22 13.6 102730 91
2006-06-08 05:57 51°26.252 2°46.566 -999 20 13.5 102720 91
2006-06-08 05:58 51°26.446 2°46.453 -999 22 13.5 102720 91
2006-06-08 05:59 51°26.641 2°46.338 -999 18 13.5 102730 91
2006-06-08 06:00 51°26.837 2°46.223 -999 20 13.4 102720 91
2006-06-08 06:01 51°27.035 2°46.107 -999 20 13.4 102730 92
2006-06-08 06:02 51°27.233 2°45.987 -999 23 13.4 102730 92
2006-06-08 06:03 51°27.432 2°45.873 -999 23 13.4 102720 92
2006-06-08 06:04 51°27.629 2°45.757 -999 22 13.4 102720 92
2006-06-08 06:05 51°27.825 2°45.639 -999 23 13.3 102720 92
2006-06-08 06:06 51°28.022 2°45.521 -999 21 13.3 102730 92
2006-06-08 06:07 51°28.222 2°45.412 -999 22 13.3 102720 93
2006-06-08 06:08 51°28.415 2°45.306 -999 22 13.3 102720 93
2006-06-08 06:09 51°28.61 2°45.195 -999 22 13.3 102730 93
2006-06-08 06:10 51°28.805 2°45.088 -999 18 13.3 102730 93
2006-06-08 06:11 51°28.998 2°44.978 -999 17 13.3 102730 93
2006-06-08 06:12 51°29.193 2°44.872 -999 22 13.3 102730 94
2006-06-08 06:13 51°29.385 2°44.763 -999 21 13.3 102730 94
2006-06-08 06:14 51°29.579 2°44.653 -999 21 13.3 102730 94
2006-06-08 06:15 51°29.771 2°44.53 -999 21 13.3 102730 94
2006-06-08 06:16 51°29.964 2°44.409 -999 22 13.3 102730 94
2006-06-08 06:17 51°30.155 2°44.295 -999 25 13.2 102730 94
2006-06-08 06:18 51°30.347 2°44.18 -999 23 13.2 102730 94
2006-06-08 06:19 51°30.537 2°44.067 -999 22 13.2 102730 94
2006-06-08 06:20 51°30.733 2°43.952 -999 22 13.2 102730 95
2006-06-08 06:21 51°30.926 2°43.835 -999 19 13.1 102730 95
2006-06-08 06:22 51°31.119 2°43.719 -999 20 13.1 102730 95
2006-06-08 06:23 51°31.31 2°43.6 -999 19 13.1 102730 95
2006-06-08 06:24 51°31.498 2°43.482 -999 17 13.1 102740 95
2006-06-08 06:25 51°31.694 2°43.362 -999 19 13.1 102740 95
2006-06-08 06:26 51°31.887 2°43.245 -999 19 13.1 102740 95
2006-06-08 06:27 51°32.082 2°43.132 -999 20 13.1 102740 95
2006-06-08 06:28 51°32.277 2°43.019 -999 15 13.1 102750 95
2006-06-08 06:29 51°32.472 2°42.909 -999 14 13.1 102740 95
2006-06-08 06:30 51°32.667 2°42.8 -999 16 13.1 102740 95
2006-06-08 06:31 51°32.859 2°42.686 -999 15 13 102750 95
2006-06-08 06:32 51°33.051 2°42.571 -999 15 13 102750 95
2006-06-08 06:33 51°33.242 2°42.456 -999 15 13 102750 95
2006-06-08 06:34 51°33.433 2°42.341 -999 17 13 102750 95
2006-06-08 06:35 51°33.622 2°42.228 -999 18 13 102750 95
2006-06-08 06:36 51°33.813 2°42.114 -999 17 13 102750 95
2006-06-08 06:37 51°33.998 2°42 -999 20 13 102750 95
2006-06-08 06:38 51°34.191 2°41.886 -999 18 13 102750 95
2006-06-08 06:39 51°34.38 2°41.774 -999 18 13 102750 95
2006-06-08 06:40 51°34.57 2°41.663 -999 20 13 102750 95
2006-06-08 06:41 51°34.758 2°41.548 -999 22 13 102750 95
2006-06-08 06:42 51°34.948 2°41.44 -999 20 12.9 102740 95
2006-06-08 06:43 51°35.14 2°41.325 -999 20 12.9 102750 95
2006-06-08 06:44 51°35.326 2°41.214 -999 19 12.9 102750 95
2006-06-08 06:45 51°35.517 2°41.107 -999 19 12.9 102750 95
2006-06-08 06:46 51°35.71 2°40.988 -999 23 12.9 102750 95
2006-06-08 06:47 51°35.9 2°40.878 -999 25 12.9 102750 95
2006-06-08 06:48 51°36.094 2°40.767 -999 25 12.9 102750 95
2006-06-08 06:49 51°36.287 2°40.655 -999 27 12.9 102750 95
2006-06-08 06:50 51°36.481 2°40.545 -999 26 12.8 102750 95
2006-06-08 06:51 51°36.675 2°40.433 -999 29 12.8 102750 95
2006-06-08 06:52 51°36.87 2°40.322 -999 31 12.9 102740 95
2006-06-08 06:53 51°37.065 2°40.212 -999 33 12.8 102740 95
2006-06-08 06:54 51°37.261 2°40.102 -999 34 12.8 102740 95
2006-06-08 06:55 51°37.457 2°39.992 -999 30 12.8 102740 95
2006-06-08 06:56 51°37.651 2°39.882 -999 27 12.8 102740 96
2006-06-08 06:57 51°37.849 2°39.769 -999 22 12.8 102750 96
2006-06-08 06:58 51°38.039 2°39.66 -999 20 12.8 102750 96
2006-06-08 06:59 51°38.236 2°39.551 -999 18 12.8 102750 96
2006-06-08 07:00 51°38.426 2°39.444 -999 16 12.8 102760 96
2006-06-08 07:01 51°38.619 2°39.337 -999 16 12.8 102750 96
2006-06-08 07:02 51°38.812 2°39.228 -999 15 12.8 102750 96
2006-06-08 07:03 51°39.005 2°39.121 -999 15 12.8 102750 96
2006-06-08 07:04 51°39.198 2°39.012 -999 15 12.8 102750 96
2006-06-08 07:05 51°39.388 2°38.903 -999 16 12.8 102750 96
2006-06-08 07:06 51°39.587 2°38.792 -999 17 12.8 102750 96
2006-06-08 07:07 51°39.779 2°38.687 -999 18 12.8 102750 96
2006-06-08 07:08 51°39.972 2°38.577 -999 19 12.8 102750 96
2006-06-08 07:09 51°40.164 2°38.467 -999 20 12.8 102750 96
2006-06-08 07:10 51°40.356 2°38.358 -999 19 12.8 102750 96
2006-06-08 07:11 51°40.552 2°38.247 -999 21 12.8 102760 96
2006-06-08 07:12 51°40.741 2°38.144 -999 23 12.8 102750 96
2006-06-08 07:13 51°40.936 2°38.035 -999 25 12.8 102750 96
2006-06-08 07:14 51°41.126 2°37.93 -999 24 12.8 102750 96
2006-06-08 07:15 51°41.319 2°37.826 -999 25 12.8 102760 96
2006-06-08 07:16 51°41.511 2°37.723 -999 25 12.8 102750 96
2006-06-08 07:17 51°41.673 2°37.628 -999 38 12.8 102760 96
2006-06-08 07:18 51°41.749 2°37.541 -999 58 12.8 102760 96
2006-06-08 07:19 51°41.802 2°37.462 -999 70 12.8 102760 96
2006-06-08 07:20 51°41.859 2°37.411 -999 72 12.7 102750 95
2006-06-08 07:21 51°41.915 2°37.367 -999 95 12.7 102760 96
2006-06-08 07:22 51°41.942 2°37.302 -999 187 12.7 102760 96
2006-06-08 07:23 51°41.934 2°37.271 -999 208 12.8 102760 96
2006-06-08 07:24 51°41.926 2°37.241 -999 195 12.8 102760 96
2006-06-08 07:25 51°41.953 2°37.201 -999 86 12.9 102760 96
2006-06-08 07:26 51°41.975 2°37.268 -999 18 12.8 102760 96
2006-06-08 07:27 51°41.932 2°37.333 -999 338 12.8 102760 96
2006-06-08 07:28 51°41.918 2°37.335 -999 305 12.9 102760 96
2006-06-08 07:29 51°41.914 2°37.333 -999 284 13 102760 96
2006-06-08 07:30 51°41.934 2°37.331 -999 271 13.1 102760 96
2006-06-08 07:31 51°41.953 2°37.328 -999 296 13.2 102760 96
2006-06-08 07:32 51°41.951 2°37.321 -999 306 13.2 102770 96
2006-06-08 07:33 51°41.946 2°37.313 -999 313 13.4 102770 96
2006-06-08 07:34 51°41.94 2°37.304 -999 317 13.4 102770 96
2006-06-08 07:35 51°41.932 2°37.295 -999 315 13.5 102770 96
2006-06-08 07:36 51°41.922 2°37.289 -999 313 13.5 102780 96
2006-06-08 07:37 51°41.91 2°37.283 -999 314 13.5 102770 96
2006-06-08 07:38 51°41.898 2°37.276 -999 305 13.6 102780 95
2006-06-08 07:39 51°41.885 2°37.271 -999 302 13.7 102780 96
2006-06-08 07:40 51°41.86 2°37.271 -999 339 13.8 102780 95
2006-06-08 07:41 51°41.831 2°37.315 -999 21 13.8 102780 94
2006-06-08 07:42 51°41.839 2°37.371 -999 47 13.6 102780 94
2006-06-08 07:43 51°41.871 2°37.368 -999 56 13.4 102780 93
2006-06-08 07:44 51°41.898 2°37.314 -999 41 13.3 102780 93
2006-06-08 07:45 51°41.909 2°37.278 -999 85 13.3 102790 94
2006-06-08 07:46 51°41.915 2°37.261 -999 99 13.3 102790 94
2006-06-08 07:47 51°41.919 2°37.248 -999 132 13.3 102790 94
2006-06-08 07:48 51°41.919 2°37.235 -999 133 13.4 102790 94
2006-06-08 07:49 51°41.915 2°37.22 -999 142 13.4 102790 94
2006-06-08 07:50 51°41.909 2°37.206 -999 144 13.5 102790 94
2006-06-08 07:51 51°41.902 2°37.193 -999 162 13.6 102780 94
2006-06-08 07:52 51°41.893 2°37.181 -999 170 13.6 102790 94
2006-06-08 07:53 51°41.881 2°37.186 -999 183 13.7 102790 94
2006-06-08 07:54 51°41.868 2°37.193 -999 180 13.9 102790 94
2006-06-08 07:55 51°41.866 2°37.17 -999 159 14.1 102780 94
2006-06-08 07:56 51°41.87 2°37.155 -999 141 14.2 102790 94
2006-06-08 07:57 51°41.868 2°37.154 -999 110 14.1 102790 93
2006-06-08 07:58 51°41.88 2°37.182 -999 52 13.9 102790 91
2006-06-08 07:59 51°41.896 2°37.232 -999 55 13.7 102790 91
2006-06-08 08:00 51°41.892 2°37.249 -999 52 13.5 102790 91
2006-06-08 08:01 51°41.888 2°37.268 -999 57 13.4 102790 91
2006-06-08 08:02 51°41.888 2°37.288 -999 66 13.3 102790 92
2006-06-08 08:03 51°41.886 2°37.302 -999 71 13.3 102790 92
2006-06-08 08:04 51°41.883 2°37.311 -999 79 13.2 102790 92
2006-06-08 08:05 51°41.882 2°37.323 -999 82 13.1 102790 93
2006-06-08 08:06 51°41.882 2°37.333 -999 83 13.1 102790 93
2006-06-08 08:07 51°41.88 2°37.34 -999 83 13.1 102790 93
2006-06-08 08:08 51°41.88 2°37.35 -999 83 13.1 102790 93
2006-06-08 08:09 51°41.88 2°37.358 -999 83 13.1 102790 94
2006-06-08 08:10 51°41.88 2°37.368 -999 81 13.1 102790 94
2006-06-08 08:11 51°41.88 2°37.376 -999 80 13.1 102790 94
2006-06-08 08:12 51°41.881 2°37.387 -999 83 13.1 102780 94
2006-06-08 08:13 51°41.882 2°37.397 -999 88 13.1 102790 94
2006-06-08 08:14 51°41.884 2°37.407 -999 88 13.1 102780 94
2006-06-08 08:15 51°41.886 2°37.417 -999 88 13.1 102780 95
2006-06-08 08:16 51°41.888 2°37.427 -999 84 13.1 102780 95
2006-06-08 08:17 51°41.89 2°37.438 -999 82 13.1 102790 95
2006-06-08 08:18 51°41.891 2°37.449 -999 79 13.1 102780 95
2006-06-08 08:19 51°41.893 2°37.46 -999 77 13.1 102780 95
2006-06-08 08:20 51°41.894 2°37.471 -999 76 13 102780 95
2006-06-08 08:21 51°41.896 2°37.482 -999 75 13 102780 95
2006-06-08 08:22 51°41.896 2°37.494 -999 72 13 102780 95
2006-06-08 08:23 51°41.898 2°37.506 -999 67 13 102780 95
2006-06-08 08:24 51°41.899 2°37.519 -999 63 13 102780 96
2006-06-08 08:25 51°41.899 2°37.532 -999 62 13 102790 96
2006-06-08 08:26 51°41.899 2°37.546 -999 58 13 102780 96
2006-06-08 08:27 51°41.9 2°37.56 -999 57 13 102780 96
2006-06-08 08:28 51°41.9 2°37.574 -999 57 13 102790 96
2006-06-08 08:29 51°41.902 2°37.589 -999 57 13 102780 96
2006-06-08 08:30 51°41.903 2°37.604 -999 58 13 102780 96
2006-06-08 08:31 51°41.904 2°37.619 -999 56 13 102790 96
2006-06-08 08:32 51°41.907 2°37.634 -999 56 13 102790 96
2006-06-08 08:33 51°41.909 2°37.65 -999 56 13 102790 96
2006-06-08 08:34 51°41.91 2°37.666 -999 55 12.9 102790 96
2006-06-08 08:35 51°41.912 2°37.683 -999 54 13 102790 96
2006-06-08 08:36 51°41.913 2°37.698 -999 55 13 102790 96
2006-06-08 08:37 51°41.914 2°37.716 -999 54 13 102790 96
2006-06-08 08:38 51°41.915 2°37.734 -999 43 13 102790 96
2006-06-08 08:39 51°41.944 2°37.773 -999 65 13 102790 96
2006-06-08 08:40 51°41.985 2°37.725 -999 55 13 102800 96
2006-06-08 08:41 51°41.991 2°37.605 -999 353 13.1 102800 97
2006-06-08 08:42 51°41.976 2°37.464 -999 356 13.2 102810 97
2006-06-08 08:43 51°41.953 2°37.376 -999 311 13.4 102800 97
2006-06-08 08:44 51°41.946 2°37.371 -999 253 13.6 102810 97
2006-06-08 08:45 51°41.939 2°37.375 -999 267 13.7 102800 97
2006-06-08 08:46 51°41.932 2°37.382 -999 282 13.8 102800 97
2006-06-08 08:47 51°41.926 2°37.389 -999 291 13.9 102800 97
2006-06-08 08:48 51°41.919 2°37.397 -999 300 13.9 102800 97
2006-06-08 08:49 51°41.912 2°37.406 -999 302 14 102790 97
2006-06-08 08:50 51°41.906 2°37.416 -999 305 14 102790 96
2006-06-08 08:51 51°41.899 2°37.427 -999 305 14 102790 96
2006-06-08 08:52 51°41.893 2°37.439 -999 310 14.1 102790 96
2006-06-08 08:53 51°41.888 2°37.451 -999 310 14.2 102800 96
2006-06-08 08:54 51°41.883 2°37.464 -999 313 14.3 102790 96
2006-06-08 08:55 51°41.878 2°37.477 -999 307 14.4 102790 95
2006-06-08 08:56 51°41.873 2°37.49 -999 303 14.5 102790 95
2006-06-08 08:57 51°41.87 2°37.501 -999 298 14.7 102800 95
2006-06-08 08:58 51°41.866 2°37.512 -999 292 14.7 102790 95
2006-06-08 08:59 51°41.863 2°37.523 -999 289 14.8 102790 94
2006-06-08 09:00 51°41.86 2°37.533 -999 281 14.9 102790 94
2006-06-08 09:01 51°41.856 2°37.541 -999 272 14.9 102790 93
2006-06-08 09:02 51°41.84 2°37.527 -999 277 14.9 102790 93
2006-06-08 09:03 51°41.831 2°37.474 -999 271 14.9 102790 92
2006-06-08 09:04 51°41.848 2°37.41 -999 70 14.9 102790 92
2006-06-08 09:05 51°41.876 2°37.337 -999 59 15 102790 91
2006-06-08 09:06 51°41.905 2°37.255 -999 60 14.8 102790 90
2006-06-08 09:07 51°41.944 2°37.193 -999 72 14.6 102790 89
2006-06-08 09:08 51°41.977 2°37.19 -999 98 14.3 102790 88
2006-06-08 09:09 51°41.982 2°37.2 -999 108 14.2 102790 89
2006-06-08 09:10 51°41.984 2°37.212 -999 106 14.2 102790 89
2006-06-08 09:11 51°42.001 2°37.222 -999 92 14.2 102790 89
2006-06-08 09:12 51°42.027 2°37.215 -999 98 14.1 102790 89
2006-06-08 09:13 51°42.04 2°37.183 -999 103 14 102790 90
2006-06-08 09:14 51°42.018 2°37.148 -999 320 14.2 102790 91
2006-06-08 09:15 51°41.978 2°37.175 -999 338 14.3 102790 91
2006-06-08 09:16 51°41.946 2°37.25 -999 345 14.3 102790 90
2006-06-08 09:17 51°41.93 2°37.297 -999 284 14.3 102790 90
2006-06-08 09:18 51°41.935 2°37.317 -999 273 14.4 102790 90
2006-06-08 09:19 51°41.938 2°37.336 -999 271 14.5 102790 90
2006-06-08 09:20 51°41.94 2°37.356 -999 269 14.5 102790 90
2006-06-08 09:21 51°41.943 2°37.372 -999 268 14.5 102790 90
2006-06-08 09:22 51°41.944 2°37.389 -999 266 14.5 102790 90
2006-06-08 09:23 51°41.927 2°37.39 -999 259 14.5 102790 89
2006-06-08 09:24 51°41.922 2°37.34 -999 62 14.5 102790 89
2006-06-08 09:25 51°41.944 2°37.297 -999 112 14.4 102790 88
2006-06-08 09:26 51°41.962 2°37.281 -999 126 14.3 102790 88
2006-06-08 09:27 51°41.978 2°37.275 -999 132 14.3 102790 88
2006-06-08 09:28 51°41.994 2°37.273 -999 129 14.2 102790 89
2006-06-08 09:29 51°42.009 2°37.244 -999 134 14.2 102790 89
2006-06-08 09:30 51°41.984 2°37.208 -999 304 14.4 102790 90
2006-06-08 09:31 51°41.943 2°37.242 -999 42 14.5 102790 90
2006-06-08 09:32 51°41.94 2°37.266 -999 291 14.6 102790 90
2006-06-08 09:33 51°41.941 2°37.287 -999 288 14.6 102800 89
2006-06-08 09:34 51°41.942 2°37.31 -999 287 14.7 102800 89
2006-06-08 09:35 51°41.944 2°37.331 -999 289 14.7 102790 89
2006-06-08 09:36 51°41.944 2°37.353 -999 288 14.7 102800 89
2006-06-08 09:37 51°41.945 2°37.373 -999 283 14.7 102790 88
2006-06-08 09:38 51°41.923 2°37.389 -999 303 14.7 102790 88
2006-06-08 09:39 51°41.802 2°37.388 -999 340 14.6 102790 88
2006-06-08 09:40 51°41.617 2°37.375 -999 347 14.5 102780 88
2006-06-08 09:41 51°41.406 2°37.312 -999 347 14.5 102780 88
2006-06-08 09:42 51°41.204 2°37.247 -999 345 14.4 102790 88
2006-06-08 09:43 51°41.003 2°37.185 -999 344 14.4 102790 88
2006-06-08 09:44 51°40.797 2°37.119 -999 343 14.4 102790 88
2006-06-08 09:45 51°40.598 2°37.052 -999 344 14.3 102790 88
2006-06-08 09:46 51°40.395 2°36.987 -999 342 14.3 102790 89
2006-06-08 09:47 51°40.188 2°36.958 -999 342 14.3 102790 89
2006-06-08 09:48 51°39.983 2°36.929 -999 345 14.3 102790 89
2006-06-08 09:49 51°39.777 2°36.897 -999 343 14.2 102790 89
2006-06-08 09:50 51°39.572 2°36.87 -999 343 14.2 102790 89
2006-06-08 09:51 51°39.369 2°36.834 -999 344 14.2 102790 89
2006-06-08 09:52 51°39.166 2°36.8 -999 344 14.2 102790 89
2006-06-08 09:53 51°38.965 2°36.773 -999 343 14.2 102790 90
2006-06-08 09:54 51°38.759 2°36.74 -999 343 14.3 102790 90
2006-06-08 09:55 51°38.556 2°36.71 -999 344 14.2 102790 90
2006-06-08 09:56 51°38.352 2°36.676 -999 346 14.2 102790 90
2006-06-08 09:57 51°38.146 2°36.64 -999 345 14.3 102790 90
2006-06-08 09:58 51°37.949 2°36.611 -999 342 14.3 102790 90
2006-06-08 09:59 51°37.741 2°36.578 -999 343 14.3 102790 90
2006-06-08 10:00 51°37.533 2°36.549 -999 343 14.3 102790 90
2006-06-08 10:01 51°37.332 2°36.522 -999 343 14.3 102790 90
2006-06-08 10:02 51°37.13 2°36.492 -999 345 14.4 102790 90
2006-06-08 10:03 51°36.925 2°36.46 -999 345 14.4 102790 90
2006-06-08 10:04 51°36.721 2°36.428 -999 344 14.4 102790 90
2006-06-08 10:05 51°36.513 2°36.398 -999 347 14.4 102790 90
2006-06-08 10:06 51°36.305 2°36.368 -999 348 14.4 102800 90
2006-06-08 10:07 51°36.108 2°36.34 -999 348 14.4 102800 90
2006-06-08 10:08 51°35.901 2°36.313 -999 348 14.4 102800 90
2006-06-08 10:09 51°35.694 2°36.279 -999 353 14.4 102800 90
2006-06-08 10:10 51°35.499 2°36.25 -999 351 14.4 102800 90
2006-06-08 10:11 51°35.297 2°36.219 -999 356 14.4 102800 90
2006-06-08 10:12 51°35.091 2°36.192 -999 352 14.3 102800 90
2006-06-08 10:13 51°34.886 2°36.164 -999 353 14.3 102800 90
2006-06-08 10:14 51°34.687 2°36.136 -999 353 14.3 102800 90
2006-06-08 10:15 51°34.488 2°36.102 -999 352 14.3 102800 90
2006-06-08 10:16 51°34.277 2°36.067 -999 354 14.3 102800 91
2006-06-08 10:17 51°34.08 2°36.035 -999 354 14.2 102800 91
2006-06-08 10:18 51°33.869 2°36 -999 352 14.3 102800 91
2006-06-08 10:19 51°33.669 2°35.964 -999 354 14.2 102800 91
2006-06-08 10:20 51°33.465 2°35.931 -999 355 14.2 102800 91
2006-06-08 10:21 51°33.266 2°35.87 -999 354 14.2 102800 91
2006-06-08 10:22 51°33.067 2°35.803 -999 355 14.2 102800 91
2006-06-08 10:23 51°32.864 2°35.739 -999 351 14.1 102800 91
2006-06-08 10:24 51°32.667 2°35.678 -999 352 14.1 102800 92
2006-06-08 10:25 51°32.463 2°35.615 -999 353 14.1 102800 92
2006-06-08 10:26 51°32.262 2°35.553 -999 350 14.2 102800 92
2006-06-08 10:27 51°32.064 2°35.479 -999 352 14.2 102790 92
2006-06-08 10:28 51°31.869 2°35.396 -999 350 14.3 102790 92
2006-06-08 10:29 51°31.673 2°35.306 -999 350 14.3 102790 92
2006-06-08 10:30 51°31.478 2°35.221 -999 352 14.3 102790 92
2006-06-08 10:31 51°31.274 2°35.13 -999 351 14.3 102790 92
2006-06-08 10:32 51°31.082 2°35.021 -999 356 14.3 102790 92
2006-06-08 10:33 51°30.896 2°34.895 -999 356 14.3 102790 92
2006-06-08 10:34 51°30.71 2°34.775 -999 357 14.3 102790 92
2006-06-08 10:35 51°30.52 2°34.655 -999 357 14.3 102790 92
2006-06-08 10:36 51°30.328 2°34.53 -999 357 14.2 102790 92
2006-06-08 10:37 51°30.14 2°34.414 -999 357 14.2 102790 92
2006-06-08 10:38 51°29.951 2°34.292 -999 355 14.1 102790 92
2006-06-08 10:39 51°29.764 2°34.181 -999 354 14.1 102790 92
2006-06-08 10:40 51°29.576 2°34.063 -999 353 14.1 102790 92
2006-06-08 10:41 51°29.378 2°33.947 -999 353 14.1 102790 92
2006-06-08 10:42 51°29.191 2°33.837 -999 352 14.1 102790 92
2006-06-08 10:43 51°28.998 2°33.717 -999 351 14.1 102790 92
2006-06-08 10:44 51°28.808 2°33.603 -999 352 14.1 102800 92
2006-06-08 10:45 51°28.623 2°33.494 -999 351 14.1 102800 92
2006-06-08 10:46 51°28.434 2°33.363 -999 353 14.1 102790 93
2006-06-08 10:47 51°28.245 2°33.234 -999 352 14.2 102800 93
2006-06-08 10:48 51°28.061 2°33.101 -999 355 14.2 102800 93
2006-06-08 10:49 51°27.879 2°32.966 -999 357 14.1 102800 93
2006-06-08 10:50 51°27.694 2°32.837 -999 356 14.2 102790 93
2006-06-08 10:51 51°27.513 2°32.704 -999 353 14.2 102790 93
2006-06-08 10:52 51°27.333 2°32.569 -999 355 14.2 102790 93
2006-06-08 10:53 51°27.158 2°32.433 -999 351 14.2 102790 93
2006-06-08 10:54 51°26.984 2°32.295 -999 355 14.3 102790 93
2006-06-08 10:55 51°26.815 2°32.142 -999 353 14.3 102790 93
2006-06-08 10:56 51°26.646 2°31.998 -999 355 14.4 102790 92
2006-06-08 10:57 51°26.48 2°31.851 -999 350 14.4 102790 92
2006-06-08 10:58 51°26.317 2°31.706 -999 353 14.4 102790 92
2006-06-08 10:59 51°26.146 2°31.567 -999 351 14.4 102790 92
2006-06-08 11:00 51°25.975 2°31.435 -999 353 14.4 102790 92
2006-06-08 11:01 51°25.808 2°31.298 -999 353 14.5 102790 92
2006-06-08 11:02 51°25.64 2°31.17 -999 349 14.5 102790 92
2006-06-08 11:03 51°25.469 2°31.037 -999 349 14.6 102790 92
2006-06-08 11:04 51°25.301 2°30.908 -999 350 14.6 102790 92
2006-06-08 11:05 51°25.131 2°30.783 -999 350 14.6 102790 91
2006-06-08 11:06 51°24.96 2°30.659 -999 348 14.7 102790 91
2006-06-08 11:07 51°24.799 2°30.528 -999 352 14.7 102780 91
2006-06-08 11:08 51°24.622 2°30.394 -999 354 14.7 102790 91
2006-06-08 11:09 51°24.452 2°30.259 -999 344 14.8 102780 90
2006-06-08 11:10 51°24.277 2°30.138 -999 347 14.8 102780 90
2006-06-08 11:11 51°24.103 2°30.011 -999 345 14.8 102780 90
2006-06-08 11:12 51°23.959 2°29.904 -999 328 14.8 102790 89
2006-06-08 11:13 51°23.875 2°29.859 -999 299 14.9 102780 90
2006-06-08 11:14 51°23.803 2°29.811 -999 282 15 102780 90
2006-06-08 11:15 51°23.759 2°29.787 -999 241 15 102780 89
2006-06-08 11:16 51°23.743 2°29.794 -999 234 14.9 102780 89
2006-06-08 11:17 51°23.734 2°29.81 -999 233 14.8 102780 89
2006-06-08 11:18 51°23.726 2°29.822 -999 233 14.7 102780 89
2006-06-08 11:19 51°23.724 2°29.838 -999 238 14.6 102780 89
2006-06-08 11:20 51°23.724 2°29.858 -999 240 14.5 102780 89
2006-06-08 11:21 51°23.718 2°29.867 -999 213 14.5 102780 89
2006-06-08 11:22 51°23.721 2°29.824 -999 124 14.4 102780 90
2006-06-08 11:23 51°23.749 2°29.801 -999 140 14.4 102780 90
2006-06-08 11:24 51°23.76 2°29.798 -999 178 14.4 102780 90
2006-06-08 11:25 51°23.751 2°29.797 -999 232 14.3 102780 91
2006-06-08 11:26 51°23.745 2°29.794 -999 200 14.3 102780 91
2006-06-08 11:27 51°23.746 2°29.795 -999 200 14.2 102780 91
2006-06-08 11:28 51°23.746 2°29.805 -999 217 14.1 102780 91
2006-06-08 11:29 51°23.746 2°29.815 -999 226 14.1 102780 91
2006-06-08 11:30 51°23.747 2°29.831 -999 229 14.2 102780 92
2006-06-08 11:31 51°23.751 2°29.85 -999 230 14.2 102780 92
2006-06-08 11:32 51°23.756 2°29.871 -999 231 14.2 102790 92
2006-06-08 11:33 51°23.756 2°29.884 -999 223 14.2 102780 92
2006-06-08 11:34 51°23.752 2°29.851 -999 143 14.2 102780 92
2006-06-08 11:35 51°23.756 2°29.814 -999 178 14.3 102780 92
2006-06-08 11:36 51°23.738 2°29.788 -999 235 14.3 102780 93
2006-06-08 11:37 51°23.726 2°29.793 -999 250 14.4 102780 92
2006-06-08 11:38 51°23.721 2°29.812 -999 252 14.4 102780 92
2006-06-08 11:39 51°23.719 2°29.837 -999 255 14.4 102780 92
2006-06-08 11:40 51°23.721 2°29.866 -999 256 14.4 102780 92
2006-06-08 11:41 51°23.707 2°29.873 -999 233 14.4 102780 92
2006-06-08 11:42 51°23.721 2°29.815 -999 103 14.5 102780 92
2006-06-08 11:43 51°23.753 2°29.789 -999 134 14.5 102780 92
2006-06-08 11:44 51°23.773 2°29.807 -999 133 14.4 102780 92
2006-06-08 11:45 51°23.791 2°29.797 -999 171 14.4 102780 92
2006-06-08 11:46 51°23.787 2°29.791 -999 248 14.5 102780 92
2006-06-08 11:47 51°23.767 2°29.799 -999 256 14.5 102770 92
2006-06-08 11:48 51°23.751 2°29.804 -999 236 14.5 102780 92
2006-06-08 11:49 51°23.741 2°29.808 -999 234 14.5 102780 92
2006-06-08 11:50 51°23.735 2°29.821 -999 234 14.5 102780 92
2006-06-08 11:51 51°23.734 2°29.838 -999 235 14.5 102780 92
2006-06-08 11:52 51°23.736 2°29.857 -999 238 14.5 102770 91
2006-06-08 11:53 51°23.735 2°29.88 -999 238 14.4 102770 91
2006-06-08 11:54 51°23.724 2°29.888 -999 216 14.4 102780 91
2006-06-08 11:55 51°23.715 2°29.866 -999 152 14.4 102770 91
2006-06-08 11:56 51°23.721 2°29.824 -999 116 14.5 102770 91
2006-06-08 11:57 51°23.741 2°29.779 -999 116 14.5 102770 91
2006-06-08 11:58 51°23.771 2°29.762 -999 105 14.5 102770 91
2006-06-08 11:59 51°23.8 2°29.77 -999 96 14.5 102770 91
2006-06-08 12:00 51°23.831 2°29.774 -999 104 14.4 102770 91
2006-06-08 12:01 51°23.847 2°29.733 -999 183 14.5 102770 91
2006-06-08 12:02 51°23.82 2°29.731 -999 285 14.5 102770 92
2006-06-08 12:03 51°23.787 2°29.802 -999 306 14.6 102770 92
2006-06-08 12:04 51°23.746 2°29.875 -999 274 14.7 102770 92
2006-06-08 12:05 51°23.717 2°29.875 -999 206 14.7 102770 91
2006-06-08 12:06 51°23.721 2°29.837 -999 114 14.8 102770 91
2006-06-08 12:07 51°23.743 2°29.806 -999 117 14.7 102770 90
2006-06-08 12:08 51°23.765 2°29.81 -999 108 14.6 102770 90
2006-06-08 12:09 51°23.787 2°29.819 -999 101 14.6 102770 90
2006-06-08 12:10 51°23.811 2°29.832 -999 94 14.5 102770 90
2006-06-08 12:11 51°23.84 2°29.828 -999 109 14.5 102760 90
2006-06-08 12:12 51°23.841 2°29.788 -999 236 14.5 102770 90
2006-06-08 12:13 51°23.81 2°29.788 -999 241 14.5 102770 91
2006-06-08 12:14 51°23.78 2°29.787 -999 241 14.6 102770 91
2006-06-08 12:15 51°23.757 2°29.788 -999 230 14.7 102770 91
2006-06-08 12:16 51°23.742 2°29.79 -999 229 14.7 102770 90
2006-06-08 12:17 51°23.739 2°29.8 -999 220 14.6 102760 90
2006-06-08 12:18 51°23.741 2°29.81 -999 215 14.5 102770 89
2006-06-08 12:19 51°23.745 2°29.82 -999 213 14.4 102770 89
2006-06-08 12:20 51°23.749 2°29.832 -999 213 14.4 102760 89
2006-06-08 12:21 51°23.755 2°29.845 -999 219 14.3 102760 89
2006-06-08 12:22 51°23.754 2°29.861 -999 252 14.2 102760 89
2006-06-08 12:23 51°23.739 2°29.919 -999 324 14.4 102760 90
2006-06-08 12:24 51°23.774 2°30.027 -999 17 14.5 102750 89
2006-06-08 12:25 51°23.847 2°30.028 -999 70 14.5 102760 87
2006-06-08 12:26 51°23.865 2°29.934 -999 93 14.4 102760 87
2006-06-08 12:27 51°23.839 2°29.822 -999 57 14.4 102760 87
2006-06-08 12:28 51°23.797 2°29.77 -999 243 14.4 102760 88
2006-06-08 12:29 51°23.765 2°29.764 -999 240 14.5 102760 87
2006-06-08 12:30 51°23.742 2°29.779 -999 258 14.5 102760 87
2006-06-08 12:31 51°23.742 2°29.805 -999 265 14.6 102760 87
2006-06-08 12:32 51°23.746 2°29.834 -999 274 14.7 102750 86
2006-06-08 12:33 51°23.751 2°29.865 -999 278 14.8 102750 86
2006-06-08 12:34 51°23.757 2°29.894 -999 279 14.9 102750 86
2006-06-08 12:35 51°23.763 2°29.921 -999 271 15 102760 85
2006-06-08 12:36 51°23.77 2°29.946 -999 272 15.1 102750 85
2006-06-08 12:37 51°23.777 2°29.974 -999 292 15.1 102750 85
2006-06-08 12:38 51°23.792 2°30.052 -999 352 15.1 102750 84
2006-06-08 12:39 51°23.861 2°30.085 -999 49 15 102750 83
2006-06-08 12:40 51°23.9 2°29.992 -999 88 14.8 102750 83
2006-06-08 12:41 51°23.877 2°29.854 -999 63 14.6 102760 84
2006-06-08 12:42 51°23.829 2°29.748 -999 61 14.5 102760 85
2006-06-08 12:43 51°23.775 2°29.736 -999 261 14.6 102760 87
2006-06-08 12:44 51°23.74 2°29.765 -999 266 14.7 102760 87
2006-06-08 12:45 51°23.738 2°29.793 -999 262 14.8 102760 87
2006-06-08 12:46 51°23.747 2°29.815 -999 266 14.9 102750 87
2006-06-08 12:47 51°23.754 2°29.838 -999 272 14.9 102760 87
2006-06-08 12:48 51°23.762 2°29.86 -999 280 15 102750 87
2006-06-08 12:49 51°23.769 2°29.883 -999 278 15 102750 87
2006-06-08 12:50 51°23.776 2°29.906 -999 280 15.1 102750 87
2006-06-08 12:51 51°23.784 2°29.928 -999 286 15.1 102750 86
2006-06-08 12:52 51°23.792 2°29.948 -999 284 15.1 102750 86
2006-06-08 12:53 51°23.801 2°29.968 -999 286 15.2 102750 86
2006-06-08 12:54 51°23.809 2°29.988 -999 284 15.2 102750 85
2006-06-08 12:55 51°23.817 2°30.007 -999 286 15.2 102750 85
2006-06-08 12:56 51°23.824 2°30.024 -999 285 15.2 102750 84
2006-06-08 12:57 51°23.832 2°30.042 -999 281 15.2 102750 84
2006-06-08 12:58 51°23.839 2°30.059 -999 282 15.2 102750 83
2006-06-08 12:59 51°23.847 2°30.076 -999 281 15.2 102750 82
2006-06-08 13:00 51°23.854 2°30.092 -999 273 15.2 102750 82
2006-06-08 13:01 51°23.842 2°30.123 -999 260 15.2 102750 82
2006-06-08 13:02 51°23.812 2°30.096 -999 91 15.2 102750 81
2006-06-08 13:03 51°23.806 2°30.002 -999 82 15.1 102750 80
2006-06-08 13:04 51°23.798 2°29.898 -999 90 15 102750 79
2006-06-08 13:05 51°23.799 2°29.86 -999 161 14.9 102750 80
2006-06-08 13:06 51°23.8 2°29.854 -999 168 14.8 102750 80
2006-06-08 13:07 51°23.8 2°29.852 -999 170 14.7 102750 80
2006-06-08 13:08 51°23.802 2°29.853 -999 162 14.7 102750 80
2006-06-08 13:09 51°23.804 2°29.855 -999 168 14.7 102740 81
2006-06-08 13:10 51°23.806 2°29.857 -999 169 14.7 102750 81
2006-06-08 13:11 51°23.81 2°29.86 -999 160 14.7 102750 81
2006-06-08 13:12 51°23.814 2°29.862 -999 155 14.7 102750 81
2006-06-08 13:13 51°23.819 2°29.865 -999 150 14.7 102750 81
2006-06-08 13:14 51°23.825 2°29.868 -999 143 14.7 102740 82
2006-06-08 13:15 51°23.831 2°29.87 -999 138 14.7 102750 82
2006-06-08 13:16 51°23.837 2°29.872 -999 137 14.8 102750 83
2006-06-08 13:17 51°23.844 2°29.875 -999 135 14.8 102750 83
2006-06-08 13:18 51°23.851 2°29.877 -999 121 14.9 102740 84
2006-06-08 13:19 51°23.859 2°29.88 -999 119 15.1 102750 85
2006-06-08 13:20 51°23.867 2°29.883 -999 112 15.1 102740 86
2006-06-08 13:21 51°23.875 2°29.886 -999 117 15.1 102740 86
2006-06-08 13:22 51°23.883 2°29.889 -999 112 15.1 102740 87
2006-06-08 13:23 51°23.891 2°29.893 -999 116 15 102740 87
2006-06-08 13:24 51°23.9 2°29.896 -999 103 15 102740 88
2006-06-08 13:25 51°23.909 2°29.899 -999 107 15 102740 88
2006-06-08 13:26 51°23.918 2°29.899 -999 100 14.9 102730 89
2006-06-08 13:27 51°23.926 2°29.868 -999 128 14.9 102730 89
2006-06-08 13:28 51°23.89 2°29.838 -999 312 14.9 102730 90
2006-06-08 13:29 51°23.842 2°29.84 -999 252 15.1 102730 91
2006-06-08 13:30 51°23.827 2°29.838 -999 177 15.2 102730 91
2006-06-08 13:31 51°23.821 2°29.833 -999 200 15.3 102730 91
2006-06-08 13:32 51°23.817 2°29.829 -999 174 15.3 102730 90
2006-06-08 13:33 51°23.817 2°29.827 -999 170 15.2 102730 90
2006-06-08 13:34 51°23.818 2°29.826 -999 172 15.1 102730 89
2006-06-08 13:35 51°23.82 2°29.823 -999 173 14.9 102730 89
2006-06-08 13:36 51°23.822 2°29.82 -999 174 14.8 102730 89
2006-06-08 13:37 51°23.823 2°29.817 -999 169 14.7 102730 89
2006-06-08 13:38 51°23.825 2°29.814 -999 166 14.5 102730 88
2006-06-08 13:39 51°23.827 2°29.81 -999 163 14.5 102730 88
2006-06-08 13:40 51°23.829 2°29.806 -999 161 14.5 102730 88
2006-06-08 13:41 51°23.831 2°29.801 -999 157 14.5 102730 88
2006-06-08 13:42 51°23.834 2°29.796 -999 154 14.5 102730 87
2006-06-08 13:43 51°23.836 2°29.79 -999 151 14.5 102730 87
2006-06-08 13:44 51°23.84 2°29.784 -999 148 14.5 102730 86
2006-06-08 13:45 51°23.844 2°29.778 -999 141 14.5 102730 85
2006-06-08 13:46 51°23.848 2°29.772 -999 136 14.5 102730 84
2006-06-08 13:47 51°23.852 2°29.765 -999 135 14.4 102720 82
2006-06-08 13:48 51°23.858 2°29.753 -999 128 14.5 102720 81
2006-06-08 13:49 51°23.866 2°29.715 -999 134 14.5 102720 78
2006-06-08 13:50 51°23.869 2°29.671 -999 141 14.6 102720 77
2006-06-08 13:51 51°23.869 2°29.635 -999 150 14.6 102720 76
2006-06-08 13:52 51°23.868 2°29.606 -999 150 14.6 102720 75
2006-06-08 13:53 51°23.868 2°29.582 -999 138 14.7 102720 74
2006-06-08 13:54 51°23.865 2°29.541 -999 150 14.7 102720 73
2006-06-08 13:55 51°23.847 2°29.502 -999 210 14.7 102720 72
2006-06-08 13:56 51°23.82 2°29.495 -999 261 14.8 102720 70
2006-06-08 13:57 51°23.797 2°29.525 -999 298 15 102720 70
2006-06-08 13:58 51°23.78 2°29.57 -999 301 15.2 102720 70
2006-06-08 13:59 51°23.768 2°29.608 -999 299 15.3 102720 69
2006-06-08 14:00 51°23.758 2°29.639 -999 295 15.3 102720 68
2006-06-08 14:01 51°23.75 2°29.663 -999 297 15.4 102710 68
2006-06-08 14:02 51°23.744 2°29.683 -999 299 15.4 102720 67
2006-06-08 14:03 51°23.741 2°29.699 -999 302 15.4 102720 67
2006-06-08 14:04 51°23.739 2°29.712 -999 307 15.5 102720 67
2006-06-08 14:05 51°23.738 2°29.722 -999 307 15.5 102710 66
2006-06-08 14:06 51°23.739 2°29.719 -999 300 15.6 102720 66
2006-06-08 14:07 51°23.741 2°29.705 -999 284 15.6 102710 65
2006-06-08 14:08 51°23.747 2°29.685 -999 275 15.7 102710 65
2006-06-08 14:09 51°23.755 2°29.662 -999 264 15.6 102710 65
2006-06-08 14:10 51°23.763 2°29.644 -999 259 15.5 102720 65
2006-06-08 14:11 51°23.769 2°29.63 -999 256 15.4 102720 65
2006-06-08 14:12 51°23.774 2°29.618 -999 254 15.3 102710 65
2006-06-08 14:13 51°23.776 2°29.607 -999 249 15.3 102720 64
2006-06-08 14:14 51°23.777 2°29.599 -999 248 15.3 102720 64
2006-06-08 14:15 51°23.776 2°29.592 -999 248 15.3 102720 64
2006-06-08 14:16 51°23.774 2°29.584 -999 251 15.3 102720 64
2006-06-08 14:17 51°23.769 2°29.578 -999 252 15.3 102710 64
2006-06-08 14:18 51°23.763 2°29.572 -999 257 15.3 102710 64
2006-06-08 14:19 51°23.758 2°29.568 -999 259 15.3 102710 64
2006-06-08 14:20 51°23.751 2°29.563 -999 262 15.3 102710 63
2006-06-08 14:21 51°23.743 2°29.56 -999 267 15.3 102720 64
2006-06-08 14:22 51°23.736 2°29.557 -999 272 15.3 102710 65
2006-06-08 14:23 51°23.727 2°29.561 -999 286 15.3 102710 65
2006-06-08 14:24 51°23.708 2°29.607 -999 313 15.5 102710 66
2006-06-08 14:25 51°23.698 2°29.648 -999 314 15.5 102710 67
2006-06-08 14:26 51°23.691 2°29.681 -999 227 15.6 102710 69
2006-06-08 14:27 51°23.685 2°29.706 -999 314 15.6 102700 70
2006-06-08 14:28 51°23.68 2°29.726 -999 315 15.7 102710 71
2006-06-08 14:29 51°23.674 2°29.745 -999 312 15.7 102700 71
2006-06-08 14:30 51°23.67 2°29.76 -999 308 15.7 102710 71
2006-06-08 14:31 51°23.665 2°29.771 -999 303 15.7 102700 71
2006-06-08 14:32 51°23.66 2°29.779 -999 304 15.8 102700 72
2006-06-08 14:33 51°23.655 2°29.786 -999 301 15.9 102700 72
2006-06-08 14:34 51°23.629 2°29.864 -999 319 15.9 102700 72
2006-06-08 14:35 51°23.501 2°30.013 -999 331 15.8 102700 72
2006-06-08 14:36 51°23.3 2°30.047 -999 344 15.7 102700 73
2006-06-08 14:37 51°23.082 2°30.012 -999 347 15.7 102700 74
2006-06-08 14:38 51°22.866 2°29.954 -999 344 15.7 102690 73
2006-06-08 14:39 51°22.649 2°29.967 -999 338 15.7 102690 72
2006-06-08 14:40 51°22.446 2°30.077 -999 336 15.6 102690 71
2006-06-08 14:41 51°22.282 2°30.285 -999 338 15.6 102690 69
2006-06-08 14:42 51°22.15 2°30.551 -999 341 15.5 102680 69
2006-06-08 14:43 51°22.037 2°30.826 -999 343 15.5 102690 69
2006-06-08 14:44 51°21.925 2°31.105 -999 341 15.5 102690 70
2006-06-08 14:45 51°21.812 2°31.381 -999 343 15.5 102690 70
2006-06-08 14:46 51°21.701 2°31.661 -999 337 15.5 102690 69
2006-06-08 14:47 51°21.593 2°31.946 -999 336 15.4 102680 65
2006-06-08 14:48 51°21.489 2°32.223 -999 336 15.5 102690 66
2006-06-08 14:49 51°21.383 2°32.503 -999 338 15.5 102690 70
2006-06-08 14:50 51°21.268 2°32.789 -999 337 15.5 102680 71
2006-06-08 14:51 51°21.169 2°33.083 -999 337 15.5 102680 73
2006-06-08 14:52 51°21.074 2°33.379 -999 338 15.4 102680 72
2006-06-08 14:53 51°20.976 2°33.679 -999 336 15.4 102680 72
2006-06-08 14:54 51°20.883 2°33.981 -999 332 15.3 102670 73
2006-06-08 14:55 51°20.779 2°34.274 -999 334 15.3 102680 74
2006-06-08 14:56 51°20.681 2°34.566 -999 334 15.3 102680 76
2006-06-08 14:57 51°20.584 2°34.861 -999 334 15.3 102670 77
2006-06-08 14:58 51°20.485 2°35.155 -999 333 15.2 102670 77
2006-06-08 14:59 51°20.39 2°35.448 -999 335 15.2 102680 77
2006-06-08 15:00 51°20.304 2°35.743 -999 334 15.2 102670 78
2006-06-08 15:01 51°20.216 2°36.036 -999 334 15.2 102670 78
2006-06-08 15:02 51°20.13 2°36.326 -999 334 15.2 102670 77
2006-06-08 15:03 51°20.085 2°36.642 -999 341 15.2 102670 78
2006-06-08 15:04 51°20.05 2°36.958 -999 340 15.3 102670 78
2006-06-08 15:05 51°19.96 2°37.238 -999 331 15.4 102670 78
2006-06-08 15:06 51°19.824 2°37.485 -999 333 15.3 102670 78
2006-06-08 15:07 51°19.696 2°37.744 -999 332 15.2 102670 78
2006-06-08 15:08 51°19.575 2°38.005 -999 332 15.2 102670 79
2006-06-08 15:09 51°19.453 2°38.281 -999 332 15.2 102670 80
2006-06-08 15:10 51°19.331 2°38.552 -999 330 15.2 102670 80
2006-06-08 15:11 51°19.221 2°38.829 -999 329 15.2 102660 81
2006-06-08 15:12 51°19.102 2°39.106 -999 331 15.2 102670 82
2006-06-08 15:13 51°18.978 2°39.387 -999 331 15.2 102670 83
2006-06-08 15:14 51°18.855 2°39.66 -999 332 15.2 102670 84
2006-06-08 15:15 51°18.729 2°39.929 -999 331 15.1 102670 83
2006-06-08 15:16 51°18.608 2°40.2 -999 333 15.1 102670 84
2006-06-08 15:17 51°18.489 2°40.462 -999 329 15 102660 83
2006-06-08 15:18 51°18.37 2°40.722 -999 327 15.1 102660 83
2006-06-08 15:19 51°18.249 2°40.98 -999 333 15.2 102660 82
2006-06-08 15:20 51°18.124 2°41.241 -999 332 15.2 102660 82
2006-06-08 15:21 51°18 2°41.502 -999 331 15.2 102650 82
2006-06-08 15:22 51°17.873 2°41.762 -999 331 15.2 102650 81
2006-06-08 15:23 51°17.747 2°42.024 -999 328 15.3 102650 81
2006-06-08 15:24 51°17.622 2°42.289 -999 334 15.3 102650 81
2006-06-08 15:25 51°17.497 2°42.553 -999 333 15.3 102650 81
2006-06-08 15:26 51°17.378 2°42.806 -999 330 15.4 102650 81
2006-06-08 15:27 51°17.272 2°43.072 -999 326 15.3 102660 82
2006-06-08 15:28 51°17.156 2°43.333 -999 328 15.3 102650 82
2006-06-08 15:29 51°17.04 2°43.6 -999 328 15.4 102650 83
2006-06-08 15:30 51°16.93 2°43.875 -999 333 15.4 102650 83
2006-06-08 15:31 51°16.824 2°44.155 -999 334 15.4 102640 83
2006-06-08 15:32 51°16.722 2°44.439 -999 332 15.4 102650 83
2006-06-08 15:33 51°16.642 2°44.739 -999 332 15.5 102650 83
2006-06-08 15:34 51°16.554 2°45.036 -999 336 15.5 102650 83
2006-06-08 15:35 51°16.467 2°45.337 -999 336 15.5 102650 84
2006-06-08 15:36 51°16.38 2°45.638 -999 335 15.5 102650 84
2006-06-08 15:37 51°16.304 2°45.933 -999 331 15.5 102650 83
2006-06-08 15:38 51°16.241 2°46.243 -999 340 15.5 102650 84
2006-06-08 15:39 51°16.207 2°46.559 -999 336 15.6 102650 84
2006-06-08 15:40 51°16.158 2°46.873 -999 339 15.6 102650 84
2006-06-08 15:41 51°16.112 2°47.18 -999 339 15.6 102650 84
2006-06-08 15:42 51°16.065 2°47.494 -999 336 15.7 102650 84
2006-06-08 15:43 51°16.021 2°47.796 -999 337 15.7 102650 84
2006-06-08 15:44 51°15.973 2°48.108 -999 338 15.7 102650 84
2006-06-08 15:45 51°15.921 2°48.415 -999 335 15.7 102650 84
2006-06-08 15:46 51°15.86 2°48.718 -999 335 15.7 102650 83
2006-06-08 15:47 51°15.802 2°49.021 -999 333 15.7 102650 82
2006-06-08 15:48 51°15.747 2°49.319 -999 336 15.8 102650 82
2006-06-08 15:49 51°15.681 2°49.626 -999 333 15.8 102650 83
2006-06-08 15:50 51°15.62 2°49.93 -999 335 15.9 102650 83
2006-06-08 15:51 51°15.563 2°50.229 -999 336 15.9 102650 83
2006-06-08 15:52 51°15.497 2°50.536 -999 335 15.9 102650 83
2006-06-08 15:53 51°15.436 2°50.838 -999 338 15.9 102640 82
2006-06-08 15:54 51°15.377 2°51.143 -999 335 15.9 102640 82
2006-06-08 15:55 51°15.316 2°51.44 -999 332 15.9 102640 81
2006-06-08 15:56 51°15.254 2°51.748 -999 331 15.9 102640 81
2006-06-08 15:57 51°15.195 2°52.052 -999 335 16 102640 81
2006-06-08 15:58 51°15.132 2°52.353 -999 339 16 102650 81
2006-06-08 15:59 51°15.074 2°52.653 -999 333 16.1 102650 81
2006-06-08 16:00 51°15.01 2°52.952 -999 334 16.1 102650 81
2006-06-08 16:01 51°14.944 2°53.25 -999 332 16.1 102650 81
2006-06-08 16:02 51°14.886 2°53.552 -999 335 16.1 102640 82
2006-06-08 16:03 51°14.829 2°53.85 -999 335 16.1 102650 81
2006-06-08 16:04 51°14.744 2°54.134 -999 330 16.1 102650 81
2006-06-08 16:05 51°14.631 2°54.396 -999 327 16 102650 81
2006-06-08 16:06 51°14.52 2°54.67 -999 327 16 102650 82
2006-06-08 16:07 51°14.413 2°54.939 -999 326 16 102650 82
2006-06-08 16:08 51°14.311 2°55.173 -999 317 16 102650 84
2006-06-08 16:09 51°14.227 2°55.325 -999 315 16.1 102660 84
2006-06-08 16:10 51°14.124 2°55.42 -999 274 16.2 102660 84
2006-06-08 16:11 51°14.019 2°55.493 -999 289 16.3 102660 84
2006-06-08 16:12 51°13.919 2°55.565 -999 275 16.3 102660 83